Flight Track Log - Related Links

Times and Time Zones

All times are in EST time to prevent confusion due to time zone crossing. See the TAM3297 flight status page for this flight to view local times or setup timezone preferences in your user account.

Time Position Orientation Groundspeed Altitude Reporting Facility
EST Latitude Longitude Course Direction KTS MPH feet Rate Location/Type
Tue 04:23:49 AM -27.7523 -49.4897 33° Northeast  Level Estimated
Tue 04:24:49 AM -27.6651 -49.4259 33° Northeast  Level Estimated
Tue 04:25:49 AM -27.5778 -49.3623 33° Northeast  Level Estimated
Tue 04:26:49 AM -27.4905 -49.2988 33° Northeast  Level Estimated
Tue 04:27:49 AM -27.4031 -49.2354 33° Northeast  Level Estimated
Tue 04:28:49 AM -27.3157 -49.1721 33° Northeast  Level Estimated
Tue 04:29:49 AM -27.2283 -49.1089 33° Northeast  Level Estimated
Tue 04:30:49 AM -27.1409 -49.0458 33° Northeast  Level Estimated
Tue 04:31:49 AM -27.0535 -48.9828 33° Northeast  Level Estimated
Tue 04:32:49 AM -26.9660 -48.9198 33° Northeast  Level Estimated
Tue 04:33:49 AM -26.8785 -48.8570 33° Northeast  Level Estimated
Tue 04:34:49 AM -26.7909 -48.7943 33° Northeast  Level Estimated
Tue 04:35:49 AM -26.7034 -48.7317 33° Northeast  Level Estimated
Tue 04:36:49 AM -26.6157 -48.6692 33° Northeast  Level Estimated
Tue 04:37:49 AM -26.5281 -48.6067 32° Northeast  Level Estimated
Tue 04:38:49 AM -26.4405 -48.5444 32° Northeast  Level Estimated
Tue 04:39:49 AM -26.3528 -48.4822 32° Northeast  Level Estimated
Tue 04:40:49 AM -26.2651 -48.4200 32° Northeast  Level Estimated
Tue 04:41:49 AM -26.1774 -48.3579 32° Northeast  Level Estimated
Tue 04:42:49 AM -26.0896 -48.2960 32° Northeast  Level Estimated
Tue 04:43:49 AM -26.0018 -48.2341 32° Northeast  Level Estimated
Tue 04:44:49 AM -25.9140 -48.1723 32° Northeast  Level Estimated
Tue 04:45:49 AM -25.8262 -48.1107 32° Northeast  Level Estimated
Tue 04:46:49 AM -25.7383 -48.0491 32° Northeast  Level Estimated
Tue 04:47:49 AM -25.6504 -47.9876 32° Northeast  Level Estimated
Tue 04:48:49 AM -25.5625 -47.9262 32° Northeast  Level Estimated
Tue 04:49:49 AM -25.4746 -47.8648 32° Northeast  Level Estimated
Tue 04:50:49 AM -25.3866 -47.8036 32° Northeast  Level Estimated
Tue 04:51:49 AM -25.2986 -47.7425 32° Northeast  Level Estimated
Tue 04:52:49 AM -25.2106 -47.6814 32° Northeast  Level Estimated
Tue 04:53:49 AM -25.1225 -47.6204 32° Northeast  Level Estimated
Tue 04:54:49 AM -25.0345 -47.5596 32° Northeast  Level Estimated
Tue 04:55:49 AM -24.9464 -47.4988 32° Northeast  Level Estimated
Tue 04:56:49 AM -24.8583 -47.4381 32° Northeast  Level Estimated
Tue 04:57:49 AM -24.7701 -47.3775 32° Northeast  Level Estimated
Tue 04:58:49 AM -24.6820 -47.3169 32° Northeast  Level Estimated
Tue 04:59:49 AM -24.5938 -47.2565 32° Northeast  Level Estimated
Tue 05:00:49 AM -24.5056 -47.1961 32° Northeast  Level Estimated
Tue 05:01:49 AM -24.4173 -47.1359 32° Northeast  Level Estimated
Tue 05:02:49 AM -24.3291 -47.0757 32° Northeast  Level Estimated
Tue 05:03:49 AM -24.2408 -47.0156 32° Northeast  Level Estimated
Tue 05:04:49 AM -24.1525 -46.9555 32° Northeast  Level Estimated
Tue 05:05:49 AM -24.0641 -46.8956 32° Northeast  Level Estimated
Tue 05:06:49 AM -23.9758 -46.8357 32° Northeast  Level Estimated
Tue 05:07:49 AM -23.8874 -46.7760 32° Northeast  Level Estimated
Tue 05:08:49 AM -23.7990 -46.7163 32° Northeast  Level Estimated
Tue 05:09:49 AM -23.7106 -46.6567 32° Northeast  Level Estimated
Tue 05:10:49 AM -23.6222 -46.5971 32° Northeast  Level Estimated
Tue 05:11:49 AM -23.5337 -46.5377 32° Northeast  Level Estimated
Tue 05:12:49 AM -23.4452 -46.4783 32° Northeast  Level Estimated
Tue 05:13:49 AM -23.3567 -46.4190 212° Southwest  Level Estimated
Tue 05:14:49 AM -23.4452 -46.4783 32° Northeast  Level Estimated
Tue 05:15:49 AM -23.3567 -46.4190 212° Southwest  Level Estimated
Tue 05:16:49 AM -23.4452 -46.4783 32° Northeast  Level Estimated
Tue 05:17:49 AM -23.3567 -46.4190 212° Southwest  Level Estimated
Tue 05:18:49 AM -23.4452 -46.4783 32° Northeast  Level Estimated
Tue 05:19:49 AM -23.3567 -46.4190 212° Southwest  Level Estimated
Tue 05:20:49 AM -23.4452 -46.4783 32° Northeast  Level Estimated
Tue 05:21:49 AM -23.3567 -46.4190 212° Southwest  Level Estimated
Tue 05:22:49 AM -23.4452 -46.4783 32° Northeast  Level Estimated
Tue 05:23:49 AM -23.3567 -46.4190 212° Southwest  Level Estimated
Tue 05:24:49 AM -23.4452 -46.4783 32° Northeast  Level Estimated
Tue 05:25:49 AM -23.3567 -46.4190 212° Southwest  Level Estimated
Tue 05:26:49 AM -23.4452 -46.4783 32° Northeast  Level Estimated
Tue 05:27:49 AM -23.3567 -46.4190 212° Southwest  Level Estimated
Tue 05:28:49 AM -23.4452 -46.4783 212° Southwest  Level Estimated

Login

Don't have an account? Register now (free) for customized features, flight alerts, and more!